Time;durP1;ratioP1;P1;durP2;ratioP2;P2;SDS_P1;SDS_P2;PMS_P1;PMS_P2;Temp;Humidity;BMP_temperature;BMP_pressure;BME280_temperature;BME280_humidity;BME280_pressure;Samples;Min_cycle;Max_cycle;Signal;HPM_P1;HPM_P2
2021/06/02 00:01:59;;;;;;;9.63;3.50;;;;;;;11.66;100.00;100401.58;1608405;88;21084;-84
2021/06/02 00:04:30;;;;;;;10.78;3.80;;;;;;;11.67;100.00;100383.48;1607962;88;21166;-85
2021/06/02 00:07:04;;;;;;;9.85;3.27;;;;;;;11.69;100.00;100379.44;1477210;96;21158;-84
2021/06/02 00:09:30;;;;;;;7.17;3.00;;;;;;;11.70;100.00;100379.70;1414372;100;21743;-84
2021/06/02 00:12:01;;;;;;;8.70;4.05;;;;;;;11.70;100.00;100383.74;1413979;99;21137;-84
2021/06/02 00:14:27;;;;;;;8.65;3.50;;;;;;;11.71;100.00;100382.68;1429539;98;21190;-84
2021/06/02 00:16:56;;;;;;;13.03;3.62;;;;;;;11.74;100.00;100365.94;1429544;98;21242;-84
2021/06/02 00:19:23;;;;;;;7.00;3.08;;;;;;;11.80;100.00;100364.04;1460604;95;21069;-83
2021/06/02 00:21:49;;;;;;;10.00;4.00;;;;;;;11.72;100.00;100363.23;1482982;94;21163;-84
2021/06/02 00:24:15;;;;;;;11.73;3.98;;;;;;;11.79;100.00;100369.16;1476871;95;21085;-83
2021/06/02 00:26:42;;;;;;;14.50;3.95;;;;;;;11.81;100.00;100373.74;1484831;94;20968;-84
2021/06/02 00:29:09;;;;;;;10.88;4.33;;;;;;;11.79;100.00;100379.95;1499782;93;21162;-84
2021/06/02 00:31:45;;;;;;;8.23;3.35;;;;;;;11.81;100.00;100385.34;1498839;93;21248;-84
2021/06/02 00:34:11;;;;;;;9.93;3.98;;;;;;;11.84;100.00;100397.50;1498038;93;22414;-84
2021/06/02 00:36:45;;;;;;;9.98;3.70;;;;;;;11.90;100.00;100401.03;1500301;94;21103;-85
2021/06/02 00:39:13;;;;;;;12.53;4.10;;;;;;;11.85;100.00;100409.94;1495260;93;21141;-84
2021/06/02 00:41:43;;;;;;;13.05;3.50;;;;;;;11.88;100.00;100415.34;1501178;93;21188;-85
2021/06/02 00:44:12;;;;;;;8.83;3.67;;;;;;;11.90;100.00;100419.94;1502290;93;21117;-84
2021/06/02 00:46:39;;;;;;;10.63;4.37;;;;;;;11.94;100.00;100418.30;1502023;94;21970;-84
2021/06/02 00:49:16;;;;;;;9.50;3.67;;;;;;;12.00;100.00;100428.00;1501752;94;21119;-84
2021/06/02 00:51:46;;;;;;;15.28;4.30;;;;;;;12.16;100.00;100434.20;1506997;94;21101;-84
2021/06/02 00:54:10;;;;;;;17.62;5.87;;;;;;;12.14;100.00;100426.35;1504031;94;21738;-85
2021/06/02 00:56:41;;;;;;;14.70;4.30;;;;;;;12.08;100.00;100424.75;1505453;94;21169;-84
2021/06/02 00:59:09;;;;;;;15.68;4.67;;;;;;;12.06;100.00;100425.59;1505968;94;21817;-84
2021/06/02 01:01:36;;;;;;;12.47;4.22;;;;;;;12.02;100.00;100411.80;1500844;94;21148;-84
2021/06/02 01:04:04;;;;;;;14.98;4.60;;;;;;;12.00;100.00;100403.70;1557195;89;21037;-85
2021/06/02 01:06:34;;;;;;;16.05;4.15;;;;;;;12.03;100.00;100404.53;1634864;84;21039;-85
2021/06/02 01:09:04;;;;;;;17.00;4.50;;;;;;;12.10;100.00;100407.73;1664549;84;21126;-85
2021/06/02 01:11:31;;;;;;;13.30;4.95;;;;;;;12.10;100.00;100420.44;1615319;87;21772;-85
2021/06/02 01:13:59;;;;;;;14.65;4.50;;;;;;;12.01;100.00;100420.19;1617394;87;21639;-84
2021/06/02 01:16:31;;;;;;;17.45;4.83;;;;;;;12.07;100.00;100419.09;1611894;88;21029;-85
2021/06/02 01:18:58;;;;;;;12.88;4.28;;;;;;;12.05;100.00;100419.90;1621868;86;21131;-86
2021/06/02 01:21:28;;;;;;;11.38;4.70;;;;;;;12.02;100.00;100419.09;1621966;86;21901;-86
2021/06/02 01:23:59;;;;;;;15.30;4.95;;;;;;;12.05;100.00;100417.20;1621704;86;21213;-86
2021/06/02 01:26:29;;;;;;;13.85;4.60;;;;;;;12.06;100.00;100418.83;1621388;88;21166;-85
2021/06/02 01:28:56;;;;;;;15.05;4.33;;;;;;;12.02;100.00;100417.74;1615564;87;21650;-87
2021/06/02 01:31:53;;;;;;;11.03;3.77;;;;;;;12.03;100.00;100419.38;1619394;88;21149;-87
2021/06/02 01:34:36;;;;;;;15.43;5.55;;;;;;;12.03;100.00;100419.38;1615008;87;21077;-85
2021/06/02 01:37:31;;;;;;;11.12;4.25;;;;;;;12.02;100.00;100421.80;1628205;87;21629;-87
2021/06/02 01:40:14;;;;;;;13.78;4.47;;;;;;;11.97;100.00;100416.40;1613589;87;21214;-89
2021/06/02 01:43:03;;;;;;;13.13;4.92;;;;;;;11.98;100.00;100416.69;1611709;88;21134;-89
2021/06/02 01:46:01;;;;;;;13.28;5.37;;;;;;;11.95;100.00;100407.78;1613455;87;21151;-87
2021/06/02 01:48:35;;;;;;;14.90;4.95;;;;;;;11.94;100.00;100407.49;1644947;85;21072;-87
2021/06/02 01:51:30;;;;;;;18.80;4.90;;;;;;;11.90;100.00;100411.83;1607040;88;21103;-88
2021/06/02 01:54:51;;;;;;;19.98;5.17;;;;;;;11.91;100.00;100408.04;1537387;91;21113;-89
2021/06/02 01:57:51;;;;;;;18.15;4.95;;;;;;;11.89;100.00;100403.47;1535565;91;21097;-89
2021/06/02 02:01:02;;;;;;;16.55;5.03;;;;;;;11.88;100.00;100400.48;1544853;92;21105;-89
2021/06/02 02:03:40;;;;;;;15.83;5.25;;;;;;;11.87;100.00;100399.69;1535557;91;21157;-90
2021/06/02 02:06:29;;;;;;;16.85;4.37;;;;;;;11.75;100.00;100399.14;1540761;91;21113;-90
2021/06/02 02:09:20;;;;;;;21.70;5.20;;;;;;;11.73;100.00;100397.23;1565167;89;21027;-90
2021/06/02 02:11:47;;;;;;;13.05;4.12;;;;;;;11.66;100.00;100390.78;1630931;86;21084;-88
2021/06/02 02:14:37;;;;;;;17.73;5.20;;;;;;;11.68;100.00;100395.92;1650994;85;21102;-89
2021/06/02 02:17:48;;;;;;;17.85;5.60;;;;;;;11.65;100.00;100396.44;1652114;86;21099;-93
2021/06/02 02:20:38;;;;;;;17.30;5.20;;;;;;;11.62;100.00;100407.77;1646806;87;21311;-90
2021/06/02 02:23:41;;;;;;;19.50;6.35;;;;;;;11.62;100.00;100407.77;1649136;86;21015;-90
2021/06/02 02:26:25;;;;;;;19.97;5.40;;;;;;;11.65;100.00;100405.88;1652140;86;21583;-87
2021/06/02 02:28:59;;;;;;;12.40;4.45;;;;;;;11.72;100.00;100410.48;1649588;86;21136;-88
2021/06/02 02:31:40;;;;;;;12.73;4.95;;;;;;;11.70;100.00;100413.98;1646182;86;21186;-88
2021/06/02 02:34:43;;;;;;;26.45;5.35;;;;;;;11.73;100.00;100414.24;1646346;86;21048;-88
2021/06/02 02:37:23;;;;;;;16.45;5.90;;;;;;;11.81;100.00;100402.90;1623984;88;21156;-88
2021/06/02 02:40:19;;;;;;;16.62;5.35;;;;;;;11.79;100.00;100396.98;1627332;85;21611;-88
2021/06/02 02:43:02;;;;;;;21.27;5.80;;;;;;;11.86;100.00;100391.88;1687358;84;21202;-88
2021/06/02 02:45:39;;;;;;;17.25;5.05;;;;;;;11.85;100.00;100383.45;1690266;83;21088;-88
2021/06/02 02:48:14;;;;;;;15.43;5.05;;;;;;;11.83;100.00;100393.19;1698235;83;21155;-88
2021/06/02 02:51:08;;;;;;;17.50;4.87;;;;;;;11.79;100.00;100384.84;1641451;86;21115;-87
2021/06/02 02:53:47;;;;;;;18.02;5.15;;;;;;;11.78;100.00;100379.14;1643523;86;21573;-89
2021/06/02 02:56:34;;;;;;;20.02;5.50;;;;;;;11.83;100.00;100390.49;1643622;86;21627;-89
2021/06/02 02:59:14;;;;;;;14.78;5.60;;;;;;;11.79;100.00;100386.70;1608769;87;21235;-89
2021/06/02 03:01:57;;;;;;;14.65;4.80;;;;;;;11.83;100.00;100377.80;1606507;87;21877;-88
2021/06/02 03:04:25;;;;;;;16.55;5.17;;;;;;;11.85;100.00;100374.00;1552545;91;21645;-88
2021/06/02 03:06:58;;;;;;;21.30;5.35;;;;;;;11.86;100.00;100386.47;1553358;91;21145;-85
2021/06/02 03:09:54;;;;;;;13.75;5.25;;;;;;;11.90;100.00;100389.69;1555796;90;21102;-88
2021/06/02 03:12:56;;;;;;;14.98;4.47;;;;;;;11.90;100.00;100386.98;1524529;93;21062;-87
2021/06/02 03:15:50;;;;;;;27.27;6.58;;;;;;;11.85;100.00;100381.59;1512476;93;21757;-87
2021/06/02 03:18:28;;;;;;;;;;;;;;;11.91;100.00;100388.63;1534483;92;21111;-88
2021/06/02 03:20:59;;;;;;;21.07;5.90;;;;;;;11.84;100.00;100385.34;1533624;92;20315;-88
2021/06/02 03:23:36;;;;;;;19.57;5.70;;;;;;;11.96;100.00;100379.69;1509791;93;21808;-88
2021/06/02 03:26:15;;;;;;;22.07;5.47;;;;;;;11.93;100.00;100386.98;1505910;93;21059;-88
2021/06/02 03:28:55;;;;;;;20.75;6.05;;;;;;;11.92;100.00;100386.73;1468428;96;21169;-87
2021/06/02 03:31:56;;;;;;;20.75;6.10;;;;;;;12.04;100.00;100380.48;1501269;93;21117;-88
2021/06/02 03:34:29;;;;;;;18.23;4.95;;;;;;;11.94;100.00;100387.23;1504932;94;21690;-88
2021/06/02 03:37:25;;;;;;;;;;;;;;;12.01;100.00;100393.98;1517574;94;21663;-87
2021/06/02 03:40:11;;;;;;;15.68;4.83;;;;;;;12.05;100.00;100387.48;1524437;94;20273;-88
2021/06/02 03:43:10;;;;;;;13.53;4.42;;;;;;;12.05;100.00;100396.39;1544315;91;21683;-87
2021/06/02 03:46:09;;;;;;;18.35;4.85;;;;;;;12.05;100.00;100387.48;1542475;92;21201;-86
2021/06/02 03:49:19;;;;;;;21.35;4.62;;;;;;;12.08;100.00;100380.73;1548703;91;21157;-87
2021/06/02 03:52:02;;;;;;;19.02;5.15;;;;;;;12.05;100.00;100382.08;1542369;92;21668;-86
2021/06/02 03:54:53;;;;;;;19.37;5.17;;;;;;;12.13;100.00;100384.77;1466778;96;21114;-86
2021/06/02 03:57:54;;;;;;;19.05;5.10;;;;;;;12.13;100.00;100374.77;1473418;96;21273;-87
2021/06/02 04:00:25;;;;;;;14.47;4.60;;;;;;;12.16;100.00;100383.67;1480552;93;21033;-87
2021/06/02 04:03:05;;;;;;;18.62;4.70;;;;;;;12.18;100.00;100369.36;1488245;93;21584;-86
2021/06/02 04:05:45;;;;;;;19.12;4.55;;;;;;;12.22;100.00;100365.01;1513521;92;21247;-86
2021/06/02 04:08:20;;;;;;;17.80;4.47;;;;;;;12.28;100.00;100363.90;1556716;92;21114;-86
2021/06/02 04:11:18;;;;;;;20.55;5.33;;;;;;;12.33;100.00;100370.39;1553673;92;21981;-87
2021/06/02 04:13:59;;;;;;;14.75;5.08;;;;;;;12.38;100.00;100368.47;1527891;91;21206;-87
2021/06/02 04:16:33;;;;;;;11.12;4.60;;;;;;;12.39;100.00;100370.62;1541204;92;21034;-86
2021/06/02 04:19:10;;;;;;;18.30;4.75;;;;;;;12.45;100.00;100363.56;1564300;91;21080;-86
2021/06/02 04:21:39;;;;;;;16.00;4.78;;;;;;;12.46;100.00;100369.22;1573851;90;21172;-86
2021/06/02 04:24:09;;;;;;;14.23;4.05;;;;;;;12.53;100.00;100371.64;1576149;90;21167;-87
2021/06/02 04:26:37;;;;;;;14.38;4.62;;;;;;;12.52;100.00;100371.91;1622599;87;21073;-87
2021/06/02 04:29:10;;;;;;;15.85;4.40;;;;;;;12.52;100.00;100380.82;1628579;87;21631;-87
2021/06/02 04:31:46;;;;;;;18.12;4.80;;;;;;;12.54;100.00;100377.30;1571478;91;21156;-87
2021/06/02 04:34:13;;;;;;;16.00;4.15;;;;;;;12.58;100.00;100385.11;1527697;93;21602;-86
2021/06/02 04:36:39;;;;;;;20.05;5.28;;;;;;;12.53;100.00;100381.11;1515983;93;21163;-87
2021/06/02 04:39:05;;;;;;;8.43;3.95;;;;;;;12.62;100.00;100386.19;1511281;93;21089;-87
2021/06/02 04:41:32;;;;;;;15.05;4.60;;;;;;;12.61;100.00;100392.66;1514634;93;21078;-87
2021/06/02 04:43:59;;;;;;;11.25;4.30;;;;;;;12.61;100.00;100383.20;1505905;94;21746;-85
2021/06/02 04:46:25;;;;;;;11.73;4.35;;;;;;;12.71;100.00;100383.72;1513782;93;21072;-86
2021/06/02 04:48:52;;;;;;;11.93;4.55;;;;;;;12.61;100.00;100378.34;1525814;93;21109;-88
2021/06/02 04:52:04;;;;;;;11.50;4.15;;;;;;;12.65;100.00;100387.53;1547794;89;21198;-87
2021/06/02 04:54:58;;;;;;;17.25;5.12;;;;;;;12.69;100.00;100395.34;1559658;90;21122;-87
2021/06/02 04:57:54;;;;;;;10.20;3.92;;;;;;;12.73;100.00;100394.52;1558806;91;21713;-88
2021/06/02 05:00:46;;;;;;;11.57;4.17;;;;;;;12.62;100.00;100402.41;1561043;90;21023;-88
2021/06/02 05:03:23;;;;;;;13.93;4.62;;;;;;;12.67;100.00;100403.72;1555585;90;21214;-88
2021/06/02 05:06:45;;;;;;;14.07;4.00;;;;;;;12.68;100.00;100399.14;1595671;89;21689;-88
2021/06/02 05:09:44;;;;;;;14.25;4.30;;;;;;;12.73;100.00;100399.92;1599564;88;21113;-88
2021/06/02 05:13:00;;;;;;;13.75;4.50;;;;;;;12.73;100.00;100395.03;1617081;87;21135;-89
2021/06/02 05:15:58;;;;;;;11.30;4.00;;;;;;;12.69;100.00;100404.25;1641632;84;21662;-89
2021/06/02 05:19:17;;;;;;;16.32;4.25;;;;;;;12.72;100.00;100410.45;1686374;84;21706;-89
2021/06/02 05:22:06;;;;;;;19.57;5.05;;;;;;;12.72;100.00;100398.29;1681783;85;21030;-89
2021/06/02 05:24:55;;;;;;;14.53;4.87;;;;;;;12.80;100.00;100402.31;1685618;84;21025;-89
2021/06/02 05:27:30;;;;;;;17.40;4.92;;;;;;;12.82;100.00;100405.53;1662597;82;21084;-89
2021/06/02 05:30:35;;;;;;;15.40;4.67;;;;;;;12.86;100.00;100411.20;1734107;81;21851;-89
2021/06/02 05:33:46;;;;;;;12.00;3.87;;;;;;;12.81;100.00;100401.22;1710999;82;21101;-89
2021/06/02 05:36:33;;;;;;;13.13;5.10;;;;;;;12.78;100.00;100398.27;1726064;81;21650;-89
2021/06/02 05:39:22;;;;;;;19.95;5.20;;;;;;;12.93;100.00;100401.68;1729546;81;21038;-88
2021/06/02 05:42:05;;;;;;;21.82;4.90;;;;;;;12.88;100.00;100399.55;1730180;81;21033;-88
2021/06/02 05:45:10;;;;;;;13.08;4.53;;;;;;;12.91;100.00;100405.75;1649986;85;21267;-89
2021/06/02 05:48:03;;;;;;;12.85;4.28;;;;;;;12.93;100.00;100402.23;1654263;85;21709;-88
2021/06/02 05:50:54;;;;;;;16.15;5.30;;;;;;;12.90;100.00;100398.19;1655088;85;21644;-85
2021/06/02 05:53:48;;;;;;;16.50;4.50;;;;;;;12.92;100.00;100400.08;1661835;84;21049;-86
2021/06/02 05:56:57;;;;;;;13.65;5.00;;;;;;;12.98;100.00;100410.31;1657827;85;21057;-86
2021/06/02 05:59:53;;;;;;;15.72;5.20;;;;;;;12.95;100.00;100408.17;1659512;85;21132;-86
2021/06/02 06:02:50;;;;;;;13.50;4.67;;;;;;;13.00;100.00;100408.16;1574884;89;21209;-87
2021/06/02 06:05:34;;;;;;;11.28;4.90;;;;;;;13.07;100.00;100418.66;1534939;90;21134;-87
2021/06/02 06:08:44;;;;;;;12.58;5.03;;;;;;;12.94;100.00;100411.43;1527257;92;21097;-86
2021/06/02 06:11:31;;;;;;;13.40;4.67;;;;;;;12.91;100.00;100413.86;1528810;90;21171;-87
2021/06/02 06:14:38;;;;;;;16.45;4.70;;;;;;;12.88;100.00;100421.19;1527634;92;21174;-88
2021/06/02 06:17:44;;;;;;;22.40;5.30;;;;;;;12.86;100.00;100417.42;1539030;92;21859;-88
2021/06/02 06:20:36;;;;;;;18.92;5.97;;;;;;;12.88;100.00;100413.91;1545456;92;21679;-88
2021/06/02 06:23:25;;;;;;;15.32;4.60;;;;;;;12.82;100.00;100417.70;1637200;87;21083;-90
2021/06/02 06:26:02;;;;;;;19.82;4.92;;;;;;;12.78;100.00;100419.35;1552204;91;21058;-92
2021/06/02 06:28:42;;;;;;;13.40;4.42;;;;;;;12.69;100.00;100423.73;1429749;97;21170;-88
2021/06/02 06:31:20;;;;;;;19.02;4.75;;;;;;;12.68;100.00;100424.28;1419479;99;21264;-89
2021/06/02 06:33:48;;;;;;;14.40;3.95;;;;;;;12.63;100.00;100426.20;1431442;99;21654;-89
2021/06/02 06:36:18;;;;;;;14.30;4.78;;;;;;;12.73;100.00;100418.85;1423793;99;21152;-90
2021/06/02 06:38:59;;;;;;;17.17;4.62;;;;;;;12.67;100.00;100419.14;1380839;102;21278;-89
2021/06/02 06:41:29;;;;;;;16.25;4.55;;;;;;;12.67;100.00;100416.43;1344719;105;21207;-88
2021/06/02 06:43:57;;;;;;;14.95;4.47;;;;;;;12.65;100.00;100415.38;1329338;106;22412;-88
2021/06/02 06:46:26;;;;;;;16.85;4.30;;;;;;;12.70;100.00;100414.52;1400408;102;21108;-89
2021/06/02 06:48:54;;;;;;;20.35;4.70;;;;;;;12.72;100.00;100407.75;1397765;100;21152;-89
2021/06/02 06:51:28;;;;;;;13.00;4.83;;;;;;;12.70;100.00;100409.92;1396238;101;21139;-89
2021/06/02 06:53:56;;;;;;;17.57;4.60;;;;;;;12.78;100.00;100409.89;1406028;102;21148;-88
2021/06/02 06:56:24;;;;;;;12.03;4.37;;;;;;;12.83;100.00;100413.92;1393952;101;22466;-89
2021/06/02 06:58:51;;;;;;;16.97;5.12;;;;;;;12.80;100.00;100415.03;1381365;102;21140;-86
2021/06/02 07:01:18;;;;;;;10.65;4.40;;;;;;;12.82;100.00;100408.78;1404008;102;21168;-86
2021/06/02 07:03:45;;;;;;;10.55;4.85;;;;;;;12.88;100.00;100408.50;1429592;97;21180;-86
2021/06/02 07:06:16;;;;;;;13.13;4.62;;;;;;;12.97;100.00;100419.53;1463711;93;21122;-86
2021/06/02 07:08:45;;;;;;;11.18;4.58;;;;;;;13.01;100.00;100421.13;1473793;95;21987;-87
2021/06/02 07:11:14;;;;;;;11.83;4.08;;;;;;;13.09;100.00;100426.75;1476859;96;21122;-85
2021/06/02 07:13:41;;;;;;;10.85;3.90;;;;;;;13.15;100.00;100427.53;1454158;98;21167;-86
2021/06/02 07:16:11;;;;;;;9.35;4.17;;;;;;;13.15;100.00;100428.34;1479052;95;21062;-85
2021/06/02 07:18:41;;;;;;;14.75;4.30;;;;;;;13.26;100.00;100434.50;1516239;92;21131;-85
2021/06/02 07:21:08;;;;;;;9.63;3.90;;;;;;;13.32;100.00;100436.63;1546885;92;21122;-86
2021/06/02 07:23:37;;;;;;;10.45;4.05;;;;;;;13.40;100.00;100436.03;1546990;92;21040;-86
2021/06/02 07:26:04;;;;;;;17.67;4.05;;;;;;;13.38;100.00;100435.50;1610859;87;21080;-84
2021/06/02 07:28:37;;;;;;;7.40;3.50;;;;;;;13.46;100.00;100434.09;1620981;88;21532;-84
2021/06/02 07:31:46;;;;;;;13.25;3.42;;;;;;;13.47;100.00;100439.77;1815949;79;21949;-83
2021/06/02 07:34:12;;;;;;;8.15;3.08;;;;;;;13.42;100.00;100443.88;1788979;80;21707;-84
2021/06/02 07:36:38;;;;;;;10.13;3.37;;;;;;;13.36;100.00;100443.11;1788937;80;20993;-84
2021/06/02 07:39:05;;;;;;;12.65;3.83;;;;;;;13.40;100.00;100453.63;1784145;80;20931;-84
2021/06/02 07:41:31;;;;;;;10.63;3.80;;;;;;;13.48;100.00;100442.20;1788806;80;21042;-86
2021/06/02 07:43:57;;;;;;;9.70;3.55;;;;;;;13.42;100.00;100452.80;1789005;80;21585;-86
2021/06/02 07:46:23;;;;;;;9.03;3.80;;;;;;;13.31;100.00;100449.91;1789072;80;20840;-86
2021/06/02 07:48:51;;;;;;;11.28;4.50;;;;;;;13.25;100.00;100449.12;1789033;80;20927;-85
2021/06/02 07:51:18;;;;;;;8.53;3.62;;;;;;;13.34;100.00;100448.79;1788781;80;21499;-85
2021/06/02 07:53:44;;;;;;;14.68;3.85;;;;;;;13.36;100.00;100449.88;1789066;80;21803;-86
2021/06/02 07:56:10;;;;;;;13.53;4.00;;;;;;;13.39;100.00;100445.25;1789178;80;20939;-85
2021/06/02 07:58:36;;;;;;;11.28;4.33;;;;;;;13.38;100.00;100448.51;1789297;80;20821;-85
2021/06/02 08:01:04;;;;;;;9.88;3.85;;;;;;;13.51;100.00;100444.89;1788204;80;21118;-85
2021/06/02 08:03:30;;;;;;;10.23;4.20;;;;;;;13.52;100.00;100443.23;1783900;80;20988;-85
2021/06/02 08:05:56;;;;;;;10.43;3.80;;;;;;;13.45;100.00;100452.80;1789094;80;20939;-85
2021/06/02 08:08:22;;;;;;;9.45;4.08;;;;;;;13.45;100.00;100452.24;1789195;80;21043;-85
2021/06/02 08:10:48;;;;;;;13.80;4.30;;;;;;;13.58;100.00;100450.23;1788111;80;20896;-84
2021/06/02 08:13:14;;;;;;;8.98;3.70;;;;;;;13.49;100.00;100455.98;1788961;80;21131;-84
2021/06/02 08:15:40;;;;;;;9.73;3.77;;;;;;;13.58;100.00;100444.81;1788652;80;21499;-85
2021/06/02 08:18:06;;;;;;;8.63;3.83;;;;;;;13.58;100.00;100447.52;1782817;80;20896;-85
2021/06/02 08:20:33;;;;;;;10.03;3.70;;;;;;;13.64;100.00;100445.58;1783037;80;21194;-84
2021/06/02 08:22:59;;;;;;;7.90;3.92;;;;;;;13.62;100.00;100445.08;1782993;80;21003;-84
2021/06/02 08:25:25;;;;;;;8.40;4.10;;;;;;;13.75;100.00;100441.70;1752069;80;21991;-85
2021/06/02 08:27:51;;;;;;;9.85;3.62;;;;;;;13.67;100.00;100447.72;1783011;80;21171;-84
2021/06/02 08:30:18;;;;;;;11.88;3.85;;;;;;;13.74;100.00;100442.80;1781724;80;20900;-84
2021/06/02 08:32:45;;;;;;;8.93;3.17;;;;;;;13.75;100.00;100443.05;1780003;80;20964;-84
2021/06/02 08:35:15;;;;;;;7.83;3.37;;;;;;;13.88;100.00;100455.11;1779468;80;21626;-83
2021/06/02 08:37:41;;;;;;;7.83;3.33;;;;;;;13.92;100.00;100445.89;1779512;80;21063;-85
2021/06/02 08:40:09;;;;;;;13.28;3.47;;;;;;;13.99;100.00;100446.35;1780051;80;21027;-84
2021/06/02 08:42:35;;;;;;;6.12;3.08;;;;;;;13.87;100.00;100444.03;1782154;80;20968;-84
2021/06/02 08:45:02;;;;;;;7.42;2.70;;;;;;;13.91;100.00;100447.77;1785336;80;21074;-84
2021/06/02 08:47:28;;;;;;;8.15;2.65;;;;;;;14.00;100.00;100460.16;1785321;80;21018;-84
2021/06/02 08:49:54;;;;;;;5.47;2.70;;;;;;;13.97;100.00;100455.30;1785135;80;21863;-84
2021/06/02 08:52:20;;;;;;;5.60;2.60;;;;;;;14.06;100.00;100457.13;1785447;80;20845;-85
2021/06/02 08:54:45;;;;;;;5.62;2.80;;;;;;;14.01;100.00;100463.14;1780130;80;20955;-84
2021/06/02 08:57:11;;;;;;;9.68;3.02;;;;;;;14.07;100.00;100457.93;1785287;80;20931;-85
2021/06/02 08:59:37;;;;;;;6.83;2.20;;;;;;;14.01;100.00;100463.14;1785630;80;20825;-85
2021/06/02 09:02:05;;;;;;;8.95;2.27;;;;;;;13.97;100.00;100465.62;1785552;80;21270;-84
2021/06/02 09:04:33;;;;;;;4.00;2.20;;;;;;;14.10;100.00;100458.71;1784388;80;21047;-85
2021/06/02 09:07:04;;;;;;;7.65;2.27;;;;;;;14.07;100.00;100470.93;1785268;80;20932;-84
2021/06/02 09:09:31;;;;;;;6.58;2.00;;;;;;;14.10;100.00;100469.55;1785598;80;21066;-85
2021/06/02 09:12:05;;;;;;;4.47;2.17;;;;;;;14.09;100.00;100467.39;1785330;80;21067;-85
2021/06/02 09:14:37;;;;;;;8.28;2.35;;;;;;;14.01;100.00;100469.92;1778491;80;21309;-85
2021/06/02 09:17:08;;;;;;;5.85;2.15;;;;;;;14.02;100.00;100477.74;1717995;83;21126;-84
2021/06/02 09:19:50;;;;;;;10.25;3.25;;;;;;;13.92;100.00;100486.53;1602843;89;21090;-85
2021/06/02 09:22:22;;;;;;;6.60;2.70;;;;;;;13.96;100.00;100482.15;1602628;89;21047;-84
2021/06/02 09:24:57;;;;;;;7.40;3.55;;;;;;;13.94;100.00;100481.09;1603259;89;20996;-84
2021/06/02 09:27:49;;;;;;;5.40;3.17;;;;;;;13.97;100.00;100485.94;1602757;89;22184;-84
2021/06/02 09:30:39;;;;;;;8.93;3.55;;;;;;;14.02;100.00;100487.23;1603772;89;21145;-85
2021/06/02 09:33:01;;;;;;;17.42;3.55;;;;;;;13.94;100.00;100487.03;1606766;89;21609;-83
2021/06/02 09:35:41;;;;;;;6.33;3.30;;;;;;;13.84;100.00;100491.45;1610131;89;20921;-83
2021/06/02 09:38:25;;;;;;;8.98;3.60;;;;;;;13.74;100.00;100503.73;1610451;89;21067;-84
2021/06/02 09:40:56;;;;;;;10.05;3.70;;;;;;;13.72;100.00;100508.62;1610302;89;21865;-85
2021/06/02 09:43:32;;;;;;;12.88;4.37;;;;;;;13.60;100.00;100508.17;1610211;89;21174;-85
2021/06/02 09:46:06;;;;;;;14.23;4.35;;;;;;;13.72;100.00;100510.53;1566054;90;21165;-85
2021/06/02 09:48:52;;;;;;;12.55;3.72;;;;;;;13.73;100.00;100512.13;1566155;91;21597;-86
2021/06/02 09:51:38;;;;;;;12.65;3.98;;;;;;;13.69;100.00;100515.16;1540325;93;21084;-85
2021/06/02 09:54:07;;;;;;;12.40;3.83;;;;;;;13.68;100.00;100516.22;1540060;92;21301;-86
2021/06/02 09:56:44;;;;;;;14.05;4.40;;;;;;;13.76;100.00;100518.34;1539834;93;21033;-85
2021/06/02 09:59:13;;;;;;;12.78;4.28;;;;;;;13.63;100.00;100517.89;1540073;93;21094;-83
2021/06/02 10:01:59;;;;;;;13.50;3.87;;;;;;;13.75;100.00;100518.08;1540143;92;21156;-83
2021/06/02 10:04:40;;;;;;;9.95;3.83;;;;;;;13.76;100.00;100523.20;1514313;94;21043;-84
2021/06/02 10:07:19;;;;;;;11.73;3.62;;;;;;;13.76;100.00;100521.84;1514133;94;21880;-85
2021/06/02 10:09:45;;;;;;;10.32;3.77;;;;;;;13.78;100.00;100529.16;1514162;94;21087;-86
2021/06/02 10:12:12;;;;;;;7.20;3.27;;;;;;;13.65;100.00;100531.16;1514547;94;21558;-85
2021/06/02 10:14:40;;;;;;;12.03;3.55;;;;;;;13.64;100.00;100529.53;1516238;94;21118;-85
2021/06/02 10:17:33;;;;;;;15.30;3.67;;;;;;;13.58;100.00;100542.28;1584594;89;21112;-83
2021/06/02 10:20:07;;;;;;;13.30;4.15;;;;;;;13.60;100.00;100539.31;1605494;89;22040;-85
2021/06/02 10:22:35;;;;;;;9.33;3.42;;;;;;;13.58;100.00;100540.94;1588955;90;21654;-84
2021/06/02 10:25:07;;;;;;;13.58;4.67;;;;;;;13.55;100.00;100540.14;1597107;89;21543;-84
2021/06/02 10:27:33;;;;;;;9.05;4.00;;;;;;;13.62;100.00;100543.36;1523854;94;22414;-84
2021/06/02 10:31:21;;;;;;;13.62;4.00;;;;;;;13.67;100.00;100535.73;1842751;76;28090;-85
2021/06/02 10:33:48;;;;;;;12.47;4.22;;;;;;;13.62;100.00;100544.72;1794332;78;21212;-85
2021/06/02 10:36:14;;;;;;;9.90;3.72;;;;;;;13.72;100.00;100543.02;1770202;79;21748;-84
2021/06/02 10:39:01;;;;;;;13.48;4.00;;;;;;;13.91;100.00;100543.14;1790120;78;21154;-84
2021/06/02 10:41:50;;;;;;;10.53;3.98;;;;;;;14.03;100.00;100548.47;1741602;80;21257;-82
2021/06/02 10:44:33;;;;;;;13.60;4.30;;;;;;;14.02;100.00;100550.91;1677366;85;21118;-83
2021/06/02 10:47:01;;;;;;;10.53;4.10;;;;;;;14.03;100.00;100549.00;1639916;86;21538;-83
2021/06/02 10:49:35;;;;;;;19.15;4.15;;;;;;;13.96;100.00;100548.52;1601315;88;21555;-83
2021/06/02 10:52:09;;;;;;;11.38;4.20;;;;;;;14.01;100.00;100551.20;1564380;90;21603;-83
2021/06/02 10:54:41;;;;;;;7.92;3.92;;;;;;;14.04;100.00;100550.63;1544325;91;21021;-82
2021/06/02 10:57:11;;;;;;;16.48;4.17;;;;;;;14.01;100.00;100553.91;1546444;91;21242;-82
2021/06/02 10:59:44;;;;;;;10.25;3.77;;;;;;;14.03;100.00;100548.47;1528572;93;21159;-82
2021/06/02 11:02:20;;;;;;;10.48;3.85;;;;;;;14.11;100.00;100558.43;1521341;94;21215;-82
2021/06/02 11:05:00;;;;;;;17.92;3.83;;;;;;;14.24;100.00;100553.72;1519903;94;21136;-82
2021/06/02 11:07:36;;;;;;;15.48;3.95;;;;;;;14.20;100.00;100554.81;1521874;94;21058;-81
2021/06/02 11:12:59;;;;;;;11.30;3.62;;;;;;;14.31;100.00;100550.92;1486843;95;21078;-84
2021/06/02 11:15:36;;;;;;;13.62;3.75;;;;;;;14.31;100.00;100556.34;1482763;95;21127;-81
2021/06/02 11:18:19;;;;;;;8.53;3.40;;;;;;;14.20;100.00;100564.30;1481946;94;21114;-82
2021/06/02 11:21:00;;;;;;;12.63;4.08;;;;;;;14.22;100.00;100551.83;1474745;94;21170;-82
2021/06/02 11:23:35;;;;;;;9.00;3.58;;;;;;;14.25;100.00;100571.03;1466852;96;21210;-82
2021/06/02 11:26:26;;;;;;;12.33;4.30;;;;;;;14.17;100.00;100562.70;1399518;100;21109;-83
2021/06/02 11:28:52;;;;;;;11.55;4.20;;;;;;;14.16;100.00;100561.10;1432011;98;21177;-83
2021/06/02 11:31:32;;;;;;;9.05;3.95;;;;;;;14.24;100.00;100557.78;1412716;98;21189;-83
2021/06/02 11:34:28;;;;;;;11.33;4.03;;;;;;;14.19;100.00;100565.40;1432162;99;21195;-79
2021/06/02 11:37:09;;;;;;;12.73;4.05;;;;;;;14.14;100.00;100566.79;1419359;99;21168;-79
2021/06/02 11:39:37;;;;;;;10.70;4.20;;;;;;;14.15;100.00;100563.53;1433265;95;21250;-82
2021/06/02 11:42:06;;;;;;;14.10;4.10;;;;;;;14.20;100.00;100570.27;1488842;95;21269;-81
2021/06/02 11:44:35;;;;;;;10.98;4.28;;;;;;;14.24;100.00;100578.11;1484538;95;21165;-85
2021/06/02 11:47:03;;;;;;;8.05;4.25;;;;;;;14.15;100.00;100582.50;1500987;93;21258;-85
2021/06/02 11:49:33;;;;;;;11.97;4.22;;;;;;;14.11;100.00;100581.46;1540621;90;21220;-84
2021/06/02 11:52:19;;;;;;;7.67;4.10;;;;;;;14.13;100.00;100581.45;1554185;89;21092;-82
2021/06/02 11:54:51;;;;;;;22.82;5.17;;;;;;;14.14;100.00;100580.34;1562386;89;21668;-80
2021/06/02 11:57:30;;;;;;;7.72;4.10;;;;;;;14.20;100.00;100583.27;1571316;89;21099;-87
2021/06/02 11:59:59;;;;;;;9.50;4.72;;;;;;;14.19;100.00;100585.73;1554998;90;22026;-84
2021/06/02 12:02:25;;;;;;;16.15;4.47;;;;;;;14.14;100.00;100584.96;1532695;93;21162;-86
2021/06/02 12:04:51;;;;;;;11.63;4.92;;;;;;;14.07;100.00;100592.06;1523881;93;21760;-84